»·PEaware :: N71K KSBP-KPSP

N71K :: KSBP-KPSP

FLIGHT INFORMATION

Flight Status: Arrived
Operator: Privately registered:
United States
More flights under this callsign
Pilot: Ryan C. (15122)
Aircraft: SOCATA TBM-900
(TBM9)
More flights by this aircraft type
Origin: KSBP San Luis Co Regl
United States
Destination: KPSP Palm Springs Intl
United States
More flights between these airports :: More routes between these airports
Route: +RZS V386 FIM V186 ITSME V264 POM V197 PDZ V186 NIKKL V64 TRM PSP
File this flight plan on PilotEdge
Remarks: SBAP71
Altitude:
(Current/Filed)
11,000ft
Speed:
(Current/Filed)
250kts
Departed: 06-Feb-19 09:16 AM
Arrived: 06-Feb-19 10:31 AM
Distance/Time
Traveled:
222nm/1:15
Distance/Time
To Go:
Arrived

Flight Plot

Page will automatically refresh every two minutes.


Map Options




Map Legend


Flown Route
Filed Route
Departure Airport
Arrival Airport
Navaid (VOR, NDB)
Fix

Horizontal Profiles

Position Reports

Time Latitude Longitude Heading Altitude Ground
Speed
06-Feb-19 08:49 35.237412 -120.636682 304 178ft 0kts
06-Feb-19 08:50 35.237412 -120.636682 304 178ft 0kts
06-Feb-19 08:51 35.237412 -120.636682 304 178ft 0kts
06-Feb-19 08:52 35.237412 -120.636682 304 178ft 0kts
06-Feb-19 08:53 35.237412 -120.636682 304 178ft 0kts
06-Feb-19 08:54 35.237412 -120.636682 304 178ft 0kts
06-Feb-19 08:55 35.237412 -120.636682 304 178ft 0kts
06-Feb-19 08:56 35.237412 -120.636682 304 178ft 0kts
06-Feb-19 08:57 35.237412 -120.636682 304 178ft 0kts
06-Feb-19 08:58 35.237412 -120.636682 304 178ft 0kts
06-Feb-19 08:59 35.237412 -120.636682 304 178ft 0kts
06-Feb-19 09:00 35.237412 -120.636682 304 178ft 0kts
06-Feb-19 09:01 35.237412 -120.636682 304 178ft 0kts
06-Feb-19 09:02 35.237412 -120.636682 304 178ft 0kts
06-Feb-19 09:03 35.237412 -120.636682 304 178ft 0kts
06-Feb-19 09:04 35.237479 -120.636802 304 178ft 0kts
06-Feb-19 09:05 35.237479 -120.636802 304 178ft 0kts
06-Feb-19 09:06 35.237479 -120.636802 304 178ft 0kts
06-Feb-19 09:07 35.237351 -120.637368 214 178ft 0kts
06-Feb-19 09:08 35.237351 -120.637368 214 178ft 0kts
06-Feb-19 09:09 35.237351 -120.637368 214 178ft 0kts
06-Feb-19 09:10 35.237351 -120.637368 214 178ft 0kts
06-Feb-19 09:11 35.236649 -120.637632 131 178ft 10kts
06-Feb-19 09:12 35.234772 -120.634372 123 178ft 9kts
06-Feb-19 09:14 35.233340 -120.632208 195 178ft 0kts
06-Feb-19 09:15 35.233263 -120.632251 209 178ft 5kts
06-Feb-19 09:16 35.241849 -120.648774 303 668ft 117kts
06-Feb-19 09:17 35.262573 -120.687846 303 2716ft 150kts
06-Feb-19 09:18 35.285278 -120.729622 304 5003ft 146kts
06-Feb-19 09:19 35.308579 -120.770788 304 6961ft 166kts
06-Feb-19 09:20 35.339567 -120.823410 304 6942ft 199kts
06-Feb-19 09:21 35.371915 -120.880044 289 6923ft 203kts
06-Feb-19 09:22 35.330248 -120.895040 134 6966ft 247kts
06-Feb-19 09:23 35.283700 -120.831312 132 6937ft 251kts
06-Feb-19 09:24 35.237326 -120.766905 132 6937ft 251kts
06-Feb-19 09:25 35.191161 -120.702873 132 6937ft 251kts
06-Feb-19 09:26 35.144910 -120.638825 132 6938ft 251kts
06-Feb-19 09:27 35.098474 -120.574633 133 6938ft 251kts
06-Feb-19 09:27 35.059863 -120.521349 133 6938ft 250kts
06-Feb-19 09:29 35.006029 -120.447272 134 6937ft 248kts
06-Feb-19 09:30 34.960034 -120.384078 134 6938ft 248kts
06-Feb-19 09:31 34.914032 -120.320974 134 6934ft 248kts
06-Feb-19 09:31 34.881784 -120.276808 134 6934ft 247kts
06-Feb-19 09:32 34.835830 -120.213901 134 6938ft 244kts
06-Feb-19 09:34 34.783487 -120.142485 135 6942ft 238kts
06-Feb-19 09:35 34.738871 -120.081738 135 6948ft 244kts
06-Feb-19 09:35 34.700844 -120.030013 135 6946ft 246kts
06-Feb-19 09:36 34.654985 -119.967744 135 6945ft 246kts
06-Feb-19 09:37 34.609003 -119.905424 135 6945ft 247kts
06-Feb-19 09:38 34.562636 -119.842695 135 6945ft 248kts
06-Feb-19 09:39 34.516147 -119.779913 135 6945ft 250kts
06-Feb-19 09:40 34.497081 -119.697128 103 6946ft 259kts
06-Feb-19 09:41 34.482564 -119.610994 103 6946ft 259kts
06-Feb-19 09:42 34.468010 -119.525205 103 6946ft 259kts
06-Feb-19 09:43 34.453367 -119.439284 103 6936ft 259kts
06-Feb-19 09:44 34.438514 -119.352507 103 6790ft 259kts
06-Feb-19 09:45 34.424365 -119.270235 104 6788ft 258kts
06-Feb-19 09:46 34.409602 -119.184839 103 6785ft 260kts
06-Feb-19 09:47 34.394591 -119.098297 102 6782ft 261kts
06-Feb-19 09:48 34.379493 -119.011518 102 6780ft 263kts
06-Feb-19 09:49 34.364242 -118.924245 102 6780ft 264kts
06-Feb-19 09:50 34.342573 -118.839608 114 6781ft 263kts
06-Feb-19 09:51 34.314463 -118.757174 114 6781ft 262kts
06-Feb-19 09:52 34.286764 -118.676102 115 6781ft 258kts
06-Feb-19 09:53 34.259423 -118.596317 116 6780ft 252kts
06-Feb-19 09:55 34.228305 -118.505740 116 6780ft 247kts
06-Feb-19 09:55 34.208104 -118.440931 114 6781ft 246kts
06-Feb-19 09:56 34.184421 -118.362856 114 6781ft 246kts
06-Feb-19 09:57 34.160753 -118.285040 114 6782ft 246kts
06-Feb-19 09:58 34.137239 -118.207890 114 6793ft 241kts
06-Feb-19 09:59 34.114814 -118.134567 114 6805ft 236kts
06-Feb-19 10:00 34.092227 -118.060851 113 6852ft 231kts
06-Feb-19 10:01 34.075243 -117.986354 93 6848ft 236kts
06-Feb-19 10:02 34.076574 -117.907161 92 6832ft 236kts
06-Feb-19 10:03 34.077791 -117.827693 93 6823ft 235kts
06-Feb-19 10:04 34.059663 -117.757082 128 6830ft 225kts
06-Feb-19 10:05 34.021887 -117.696137 128 6829ft 226kts
06-Feb-19 10:06 33.984173 -117.635527 128 6835ft 226kts
06-Feb-19 10:07 33.946355 -117.574878 128 6842ft 226kts
06-Feb-19 10:08 33.905007 -117.518799 144 6840ft 224kts
06-Feb-19 10:09 33.858659 -117.479883 145 8205ft 197kts
06-Feb-19 10:10 33.808836 -117.438173 146 8860ft 240kts
06-Feb-19 10:11 33.754604 -117.392727 148 10055ft 234kts
06-Feb-19 10:12 33.727089 -117.326817 96 10861ft 256kts
06-Feb-19 10:13 33.720091 -117.238555 96 10853ft 269kts
06-Feb-19 10:14 33.712763 -117.148330 96 10852ft 271kts
06-Feb-19 10:15 33.705246 -117.056100 97 10850ft 281kts
06-Feb-19 10:16 33.697393 -116.961500 99 10843ft 286kts
06-Feb-19 10:17 33.689381 -116.865717 99 10837ft 289kts
06-Feb-19 10:18 33.681224 -116.769156 99 10838ft 290kts
06-Feb-19 10:19 33.672992 -116.672545 99 10838ft 291kts
06-Feb-19 10:20 33.664709 -116.576177 99 10861ft 290kts
06-Feb-19 10:21 33.656272 -116.479141 98 9591ft 286kts
06-Feb-19 10:22 33.648039 -116.385060 96 8120ft 280kts
06-Feb-19 10:23 33.681943 -116.327075 335 6815ft 223kts
06-Feb-19 10:24 33.717930 -116.361464 275 5860ft 157kts
06-Feb-19 10:25 33.733278 -116.409928 304 4039ft 151kts
06-Feb-19 10:26 33.755843 -116.439708 316 2694ft 118kts
06-Feb-19 10:27 33.781823 -116.463290 320 1682ft 100kts
06-Feb-19 10:28 33.800514 -116.481472 320 867ft 85kts
06-Feb-19 10:29 33.819377 -116.498439 321 507ft 73kts
06-Feb-19 10:30 33.829658 -116.507241 354 424ft 25kts
06-Feb-19 10:31 33.830022 -116.504100 143 418ft 25kts
06-Feb-19 10:32 33.824543 -116.498995 127 401ft 11kts
06-Feb-19 10:33 33.824401 -116.498454 53 399ft 0kts
06-Feb-19 10:34 33.824401 -116.498454 53 399ft 0kts
06-Feb-19 10:35 33.824401 -116.498454 53 399ft 0kts
06-Feb-19 10:36 33.824401 -116.498454 53 399ft 0kts
06-Feb-19 10:37 33.824401 -116.498454 53 399ft 0kts
06-Feb-19 10:38 33.824401 -116.498454 53 399ft 0kts
06-Feb-19 10:39 33.824401 -116.498454 53 399ft 0kts
06-Feb-19 10:40 33.824401 -116.498454 53 399ft 0kts
06-Feb-19 10:41 33.824401 -116.498454 53 399ft 0kts
06-Feb-19 10:42 33.824401 -116.498454 53 399ft 0kts
06-Feb-19 10:43 33.824401 -116.498454 53 399ft 0kts
06-Feb-19 10:44 33.824401 -116.498454 53 399ft 0kts

Navigation Log

Ident Type
Flight plan parsing failed, navigation log unavailable